Time;durP1;ratioP1;P1;durP2;ratioP2;P2;SDS_P1;SDS_P2;PMS_P1;PMS_P2;Temp;Humidity;BMP_temperature;BMP_pressure;BME280_temperature;BME280_humidity;BME280_pressure;Samples;Min_cycle;Max_cycle;Signal;HPM_P1;HPM_P2
2022/01/23 00:00:51;;;;;;;;;;;-2.80;99.90;;;;;;4177203;28;19986;-47
2022/01/23 00:02:59;;;;;;;;;;;-2.90;99.90;;;;;;4178465;28;19932;-45
2022/01/23 00:05:33;;;;;;;;;;;-2.90;99.90;;;;;;4175227;28;19968;-46
2022/01/23 00:07:59;;;;;;;;;;;-3.00;99.90;;;;;;4174199;28;19913;-47
2022/01/23 00:10:01;;;;;;;;;;;-3.00;99.90;;;;;;4176103;28;20328;-48
2022/01/23 00:12:07;;;;;;;;;;;-2.90;99.90;;;;;;4177809;28;19979;-47
2022/01/23 00:18:52;;;;;;;;;;;-2.80;99.90;;;;;;4139279;28;19925;-46
2022/01/23 00:20:54;;;;;;;;;;;-3.00;99.90;;;;;;4175267;28;19972;-46
2022/01/23 00:23:00;;;;;;;;;;;-3.00;99.90;;;;;;4176671;28;19925;-47
2022/01/23 00:32:04;;;;;;;;;;;-3.10;99.90;;;;;;4177999;28;20615;-49
2022/01/23 00:34:06;;;;;;;;;;;-3.10;99.90;;;;;;4167044;28;20401;-50
2022/01/23 00:36:08;;;;;;;;;;;-3.00;99.90;;;;;;4171160;28;19948;-46
2022/01/23 00:38:11;;;;;;;;;;;-3.00;99.90;;;;;;4175897;28;20350;-47
2022/01/23 00:40:13;;;;;;;;;;;-3.00;99.90;;;;;;4174546;28;19983;-46
2022/01/23 00:42:15;;;;;;;;;;;-2.90;99.90;;;;;;4177195;28;20480;-47
2022/01/23 00:44:17;;;;;;;;;;;-3.00;99.90;;;;;;4177109;28;19943;-48
2022/01/23 00:48:26;;;;;;;;;;;-2.90;99.90;;;;;;4176960;28;20011;-48
2022/01/23 00:50:30;;;;;;;;;;;-3.00;99.90;;;;;;4175897;28;20553;-48
2022/01/23 00:52:31;;;;;;;;;;;-3.10;99.90;;;;;;4175595;28;20343;-45
2022/01/23 00:54:33;;;;;;;;;;;-3.10;99.90;;;;;;4174921;28;19929;-46
2022/01/23 00:56:36;;;;;;;;;;;-3.20;99.90;;;;;;4158472;28;19929;-50
2022/01/23 00:58:37;;;;;;;;;;;-3.10;99.90;;;;;;4174551;28;20514;-49
2022/01/23 01:00:40;;;;;;;;;;;-3.20;99.90;;;;;;4175020;28;19947;-48
2022/01/23 01:02:42;;;;;;;;;;;-3.10;99.90;;;;;;4176511;28;19932;-46
2022/01/23 01:04:44;;;;;;;;;;;-3.10;99.90;;;;;;4176483;28;19936;-49
2022/01/23 01:06:46;;;;;;;;;;;-3.10;99.90;;;;;;4176214;28;20010;-47
2022/01/23 01:08:50;;;;;;;;;;;-3.10;99.90;;;;;;4176111;28;19925;-46
2022/01/23 01:11:08;;;;;;;;;;;-3.10;99.90;;;;;;4175930;28;19925;-49
2022/01/23 01:13:12;;;;;;;;;;;-3.20;99.90;;;;;;4176425;28;19933;-48
2022/01/23 01:31:52;;;;;;;;;;;-3.40;99.90;;;;;;4176763;28;20448;-47
2022/01/23 01:37:41;;;;;;;;;;;-3.20;99.90;;;;;;4174510;28;20336;-46
2022/01/23 01:39:43;;;;;;;;;;;-3.40;99.90;;;;;;4177044;28;19929;-46
2022/01/23 01:41:45;;;;;;;;;;;-3.40;99.90;;;;;;4173807;28;20408;-49
2022/01/23 01:43:47;;;;;;;;;;;-3.50;99.90;;;;;;4176861;28;19987;-47
2022/01/23 01:45:49;;;;;;;;;;;-3.70;99.90;;;;;;4174702;28;20301;-49
2022/01/23 01:47:53;;;;;;;;;;;-3.70;99.90;;;;;;4177315;28;20019;-48
2022/01/23 01:49:55;;;;;;;;;;;-3.90;99.90;;;;;;4174361;28;20027;-47
2022/01/23 01:51:58;;;;;;;;;;;-3.80;99.90;;;;;;4164776;28;19964;-46
2022/01/23 01:54:09;;;;;;;;;;;-3.80;99.90;;;;;;4174573;28;19972;-47
2022/01/23 01:56:11;;;;;;;;;;;-3.80;99.90;;;;;;4177064;28;19925;-44
2022/01/23 01:58:34;;;;;;;;;;;-3.80;99.90;;;;;;4175926;28;19960;-47
2022/01/23 02:00:45;;;;;;;;;;;-3.80;99.90;;;;;;4179671;28;19932;-46
2022/01/23 02:09:43;;;;;;;;;;;-3.80;99.90;;;;;;4172580;28;20339;-46
2022/01/23 02:14:07;;;;;;;;;;;-3.80;99.90;;;;;;4177610;28;19934;-47
2022/01/23 02:55:14;;;;;;;;;;;-3.60;99.90;;;;;;4172582;28;19925;-48
2022/01/23 02:57:22;;;;;;;;;;;-3.70;99.90;;;;;;4165131;28;20398;-47
2022/01/23 02:59:27;;;;;;;;;;;-3.70;99.90;;;;;;4177896;28;20015;-47
2022/01/23 03:01:31;;;;;;;;;;;-3.60;99.90;;;;;;4178801;28;19979;-49
2022/01/23 03:03:38;;;;;;;;;;;-3.60;99.90;;;;;;4177854;28;20012;-46
2022/01/23 03:05:41;;;;;;;;;;;-3.70;99.90;;;;;;4177412;28;19925;-46
2022/01/23 03:10:03;;;;;;;;;;;-4.00;99.90;;;;;;4175895;28;19953;-46
2022/01/23 03:14:46;;;;;;;;;;;-4.20;99.90;;;;;;4177431;28;20437;-47
2022/01/23 03:32:35;;;;;;;;;;;-4.00;99.90;;;;;;4178386;28;20012;-48
2022/01/23 03:34:37;;;;;;;;;;;-4.10;99.90;;;;;;4173373;28;19925;-47
2022/01/23 03:36:39;;;;;;;;;;;-4.20;99.90;;;;;;4178933;28;19924;-48
2022/01/23 03:38:42;;;;;;;;;;;-4.20;99.90;;;;;;4176541;28;19932;-50
2022/01/23 03:40:44;;;;;;;;;;;-4.20;99.90;;;;;;4178495;28;20011;-49
2022/01/23 03:42:48;;;;;;;;;;;-4.10;99.90;;;;;;4176445;28;20012;-48
2022/01/23 03:47:20;;;;;;;;;;;-4.00;99.90;;;;;;4175837;28;19931;-47
2022/01/23 03:49:31;;;;;;;;;;;-3.90;99.90;;;;;;4178248;28;19940;-49
2022/01/23 03:51:35;;;;;;;;;;;-3.90;99.90;;;;;;4175524;28;19932;-48
2022/01/23 03:53:38;;;;;;;;;;;-4.00;99.90;;;;;;4178260;28;20380;-47
2022/01/23 03:55:40;;;;;;;;;;;-4.10;99.90;;;;;;4176764;28;19935;-46
2022/01/23 03:57:42;;;;;;;;;;;-4.20;99.90;;;;;;4177700;28;19976;-48
2022/01/23 03:59:44;;;;;;;;;;;-4.30;99.90;;;;;;4176676;28;19928;-49
2022/01/23 04:01:46;;;;;;;;;;;-4.40;99.90;;;;;;4177997;28;19929;-49
2022/01/23 04:03:48;;;;;;;;;;;-4.40;99.90;;;;;;4171143;28;19960;-49
2022/01/23 04:05:50;;;;;;;;;;;-4.30;99.90;;;;;;4166971;28;20015;-46
2022/01/23 04:07:52;;;;;;;;;;;-4.30;99.90;;;;;;4170156;28;19972;-49
2022/01/23 04:09:57;;;;;;;;;;;-4.40;99.90;;;;;;4172403;28;19932;-47
2022/01/23 04:12:01;;;;;;;;;;;-4.40;99.90;;;;;;4176610;28;20316;-48
2022/01/23 04:14:07;;;;;;;;;;;-4.40;99.90;;;;;;4177808;28;20308;-47
2022/01/23 04:20:47;;;;;;;;;;;-4.50;99.90;;;;;;4175364;28;20464;-45
2022/01/23 04:32:25;;;;;;;;;;;-4.50;99.90;;;;;;4176138;28;20356;-46
2022/01/23 04:34:35;;;;;;;;;;;-4.50;99.90;;;;;;4175794;28;19986;-47
2022/01/23 04:59:32;;;;;;;;;;;-4.40;99.90;;;;;;4176312;28;19982;-47
2022/01/23 05:00:18;;;;;;;;;;;-4.20;99.90;;;;;;4159312;28;19974;-48
2022/01/23 05:04:33;;;;;;;;;;;-4.30;99.90;;;;;;4157715;28;19932;-49
2022/01/23 05:06:42;;;;;;;;;;;-4.40;99.90;;;;;;4176975;28;19928;-46
2022/01/23 05:08:44;;;;;;;;;;;-4.50;99.90;;;;;;4167667;28;20489;-47
2022/01/23 05:10:46;;;;;;;;;;;-4.60;99.90;;;;;;4171823;28;20015;-50
2022/01/23 05:12:48;;;;;;;;;;;-4.70;99.90;;;;;;4175816;28;19960;-50
2022/01/23 05:14:51;;;;;;;;;;;-4.60;99.90;;;;;;4175254;28;19975;-49
2022/01/23 05:16:53;;;;;;;;;;;-4.60;99.90;;;;;;4174997;28;19952;-45
2022/01/23 05:18:55;;;;;;;;;;;-4.60;99.90;;;;;;4175474;28;20436;-46
2022/01/23 05:21:09;;;;;;;;;;;-4.60;99.90;;;;;;4173393;28;20010;-46
2022/01/23 05:23:11;;;;;;;;;;;-4.60;99.90;;;;;;4176044;28;19983;-46
2022/01/23 05:25:26;;;;;;;;;;;-4.60;99.90;;;;;;4176063;28;20396;-47
2022/01/23 05:27:29;;;;;;;;;;;-4.70;99.90;;;;;;4175939;28;19924;-49
2022/01/23 05:29:32;;;;;;;;;;;-4.80;99.90;;;;;;4171561;28;19928;-48
2022/01/23 05:31:33;;;;;;;;;;;-4.70;99.90;;;;;;4174502;28;19948;-50
2022/01/23 05:33:35;;;;;;;;;;;-4.80;99.90;;;;;;4177485;28;20308;-49
2022/01/23 05:35:38;;;;;;;;;;;-4.80;99.90;;;;;;4176111;28;20036;-48
2022/01/23 05:37:40;;;;;;;;;;;-4.90;99.90;;;;;;4176917;28;20031;-45
2022/01/23 05:39:42;;;;;;;;;;;-4.90;99.90;;;;;;4173553;28;19929;-48
2022/01/23 05:41:44;;;;;;;;;;;-4.90;99.90;;;;;;4176868;28;19929;-46
2022/01/23 05:43:46;;;;;;;;;;;-5.00;99.90;;;;;;4173414;28;19960;-48
2022/01/23 05:45:49;;;;;;;;;;;-5.00;99.90;;;;;;4163222;28;20725;-45
2022/01/23 05:47:51;;;;;;;;;;;-5.00;99.90;;;;;;4155502;28;19939;-47
2022/01/23 05:49:53;;;;;;;;;;;-4.80;99.90;;;;;;4177244;28;19925;-50
2022/01/23 05:51:55;;;;;;;;;;;-4.90;99.90;;;;;;4172919;28;19955;-48
2022/01/23 05:53:57;;;;;;;;;;;-4.90;99.90;;;;;;4176194;28;19964;-47
2022/01/23 05:55:58;;;;;;;;;;;-4.90;99.90;;;;;;4172214;28;19952;-47
2022/01/23 05:58:00;;;;;;;;;;;-4.80;99.90;;;;;;4168691;28;19925;-48
2022/01/23 06:00:03;;;;;;;;;;;-4.70;99.90;;;;;;4173261;28;19957;-47
2022/01/23 06:02:05;;;;;;;;;;;-4.80;99.90;;;;;;4177020;28;20570;-49
2022/01/23 06:04:07;;;;;;;;;;;-4.80;99.90;;;;;;4174557;28;19932;-46
2022/01/23 06:06:09;;;;;;;;;;;-4.70;99.90;;;;;;4177088;28;19968;-49
2022/01/23 06:08:11;;;;;;;;;;;-4.60;99.90;;;;;;4172635;28;19929;-48
2022/01/23 06:10:21;;;;;;;;;;;-4.70;99.90;;;;;;4163904;28;19960;-47
2022/01/23 06:12:23;;;;;;;;;;;-4.70;99.90;;;;;;4173870;28;19960;-48
2022/01/23 06:14:26;;;;;;;;;;;-4.60;99.90;;;;;;4176590;28;19932;-48
2022/01/23 06:16:28;;;;;;;;;;;-4.60;99.90;;;;;;4174789;28;19929;-47
2022/01/23 06:18:32;;;;;;;;;;;-4.60;99.90;;;;;;4169056;28;19925;-46
2022/01/23 06:20:33;;;;;;;;;;;-4.60;99.90;;;;;;4174577;28;19924;-45
2022/01/23 06:22:36;;;;;;;;;;;-4.50;99.90;;;;;;4175022;28;19936;-47
2022/01/23 06:24:45;;;;;;;;;;;-4.60;99.90;;;;;;4175183;28;19971;-46
2022/01/23 06:26:49;;;;;;;;;;;-4.70;99.90;;;;;;4175623;28;19929;-47
2022/01/23 06:28:54;;;;;;;;;;;-4.80;99.90;;;;;;4169811;28;19936;-49
2022/01/23 06:30:56;;;;;;;;;;;-4.90;99.90;;;;;;4176458;28;19952;-47
2022/01/23 06:32:59;;;;;;;;;;;-4.90;99.90;;;;;;4172948;28;20295;-47
2022/01/23 06:35:01;;;;;;;;;;;-4.90;99.90;;;;;;4176671;28;19978;-46
2022/01/23 06:37:03;;;;;;;;;;;-5.00;99.90;;;;;;4174589;28;19925;-46
2022/01/23 06:39:11;;;;;;;;;;;-5.00;99.90;;;;;;4175916;28;19933;-45
2022/01/23 06:41:13;;;;;;;;;;;-5.10;99.90;;;;;;4174165;28;20002;-48
2022/01/23 06:43:15;;;;;;;;;;;-5.10;99.90;;;;;;4176143;28;19929;-50
2022/01/23 06:45:16;;;;;;;;;;;-5.10;99.90;;;;;;4177679;28;20629;-50
2022/01/23 06:47:19;;;;;;;;;;;-5.00;99.90;;;;;;4177736;28;19929;-47
2022/01/23 06:49:21;;;;;;;;;;;-4.90;99.90;;;;;;4178132;28;19924;-46
2022/01/23 06:51:23;;;;;;;;;;;-4.90;99.90;;;;;;4178647;28;20023;-46
2022/01/23 06:53:25;;;;;;;;;;;-4.90;99.90;;;;;;4171724;28;19967;-47
2022/01/23 06:55:27;;;;;;;;;;;-4.90;99.90;;;;;;4170427;28;20023;-45
2022/01/23 06:57:29;;;;;;;;;;;-5.00;99.90;;;;;;4178123;28;19925;-48
2022/01/23 06:59:31;;;;;;;;;;;-5.00;99.90;;;;;;4177376;28;19986;-48
2022/01/23 07:01:33;;;;;;;;;;;-5.10;99.90;;;;;;4177749;28;19925;-47
2022/01/23 07:03:36;;;;;;;;;;;-5.10;99.90;;;;;;4177931;28;20446;-49
2022/01/23 07:05:38;;;;;;;;;;;-5.10;99.90;;;;;;4178777;28;19932;-48
2022/01/23 07:07:39;;;;;;;;;;;-5.20;99.90;;;;;;4177404;28;20380;-46
2022/01/23 07:09:41;;;;;;;;;;;-5.20;99.90;;;;;;4177685;28;19959;-47
2022/01/23 07:11:44;;;;;;;;;;;-5.20;99.90;;;;;;4177316;28;19967;-49
2022/01/23 07:13:46;;;;;;;;;;;-5.20;99.90;;;;;;4177681;28;20280;-46
2022/01/23 07:15:49;;;;;;;;;;;-5.20;99.90;;;;;;4178135;28;19968;-46
2022/01/23 07:17:51;;;;;;;;;;;-5.20;99.90;;;;;;4176895;28;19924;-48
2022/01/23 07:19:53;;;;;;;;;;;-5.20;99.90;;;;;;4178010;28;19925;-47
2022/01/23 07:21:55;;;;;;;;;;;-5.00;99.90;;;;;;4177607;28;19929;-46
2022/01/23 07:23:57;;;;;;;;;;;-5.00;99.90;;;;;;4159480;28;19929;-46
2022/01/23 07:25:59;;;;;;;;;;;-4.90;99.90;;;;;;4176527;28;19972;-49
2022/01/23 07:28:05;;;;;;;;;;;-4.90;99.90;;;;;;4177020;28;19929;-48
2022/01/23 07:30:19;;;;;;;;;;;-4.80;99.90;;;;;;4177010;28;19940;-49
2022/01/23 07:32:21;;;;;;;;;;;-4.90;99.90;;;;;;4177062;28;19964;-48
2022/01/23 07:34:23;;;;;;;;;;;-4.80;99.90;;;;;;4177607;28;20023;-48
2022/01/23 07:36:26;;;;;;;;;;;-4.80;99.90;;;;;;4176051;28;20414;-47
2022/01/23 07:38:28;;;;;;;;;;;-4.80;99.90;;;;;;4178920;28;19967;-46
2022/01/23 07:40:29;;;;;;;;;;;-4.70;99.90;;;;;;4174887;28;20536;-46
2022/01/23 07:42:31;;;;;;;;;;;-4.70;99.90;;;;;;4178609;28;20432;-46
2022/01/23 07:44:36;;;;;;;;;;;-4.60;99.90;;;;;;4176953;28;19971;-49
2022/01/23 07:46:38;;;;;;;;;;;-4.60;99.90;;;;;;4178472;28;19944;-49
2022/01/23 07:48:40;;;;;;;;;;;-4.50;99.90;;;;;;4174920;28;19928;-49
2022/01/23 07:50:41;;;;;;;;;;;-4.50;99.90;;;;;;4171360;28;19983;-47
2022/01/23 07:52:43;;;;;;;;;;;-4.40;99.90;;;;;;4173820;28;20353;-45
2022/01/23 07:54:45;;;;;;;;;;;-4.30;99.90;;;;;;4171705;28;20392;-48
2022/01/23 07:56:47;;;;;;;;;;;-4.30;99.90;;;;;;4175290;28;19991;-47
2022/01/23 07:58:49;;;;;;;;;;;-4.20;99.90;;;;;;4177074;28;20031;-48
2022/01/23 08:00:51;;;;;;;;;;;-4.10;99.90;;;;;;4176562;28;20360;-49
2022/01/23 08:02:53;;;;;;;;;;;-4.00;99.90;;;;;;4177428;28;19925;-48
2022/01/23 08:04:55;;;;;;;;;;;-4.00;99.90;;;;;;4176836;28;19925;-46
2022/01/23 08:07:13;;;;;;;;;;;-3.90;99.90;;;;;;4178605;28;20032;-49
2022/01/23 08:09:15;;;;;;;;;;;-3.90;99.90;;;;;;4175242;28;19924;-49
2022/01/23 08:11:17;;;;;;;;;;;-3.80;99.90;;;;;;4177573;28;19932;-47
2022/01/23 08:13:20;;;;;;;;;;;-3.80;99.90;;;;;;4177390;28;19933;-49
2022/01/23 08:15:22;;;;;;;;;;;-3.80;99.90;;;;;;4176713;28;19925;-48
2022/01/23 08:17:26;;;;;;;;;;;-3.60;99.90;;;;;;4175492;28;20452;-49
2022/01/23 08:19:28;;;;;;;;;;;-3.40;99.90;;;;;;4176651;28;20384;-49
2022/01/23 08:21:30;;;;;;;;;;;-3.10;99.90;;;;;;4175703;28;19971;-46
2022/01/23 08:23:32;;;;;;;;;;;-2.80;99.90;;;;;;4177715;28;19925;-49
2022/01/23 08:25:34;;;;;;;;;;;-2.70;99.90;;;;;;4174143;28;20024;-49
2022/01/23 08:27:36;;;;;;;;;;;-2.70;99.90;;;;;;4177564;28;19960;-50
2022/01/23 08:29:37;;;;;;;;;;;-2.70;99.90;;;;;;4175162;28;20027;-48
2022/01/23 08:31:39;;;;;;;;;;;-2.70;99.90;;;;;;4174921;28;20019;-47
2022/01/23 08:33:41;;;;;;;;;;;-2.60;99.90;;;;;;4177079;28;19925;-46
2022/01/23 08:35:45;;;;;;;;;;;-2.50;99.90;;;;;;4176291;28;19960;-47
2022/01/23 08:37:47;;;;;;;;;;;-2.40;99.90;;;;;;4175862;28;19957;-47
2022/01/23 08:39:49;;;;;;;;;;;-2.50;99.90;;;;;;4175906;28;19929;-47
2022/01/23 08:41:51;;;;;;;;;;;-2.40;99.90;;;;;;4175782;28;19994;-48
2022/01/23 08:43:53;;;;;;;;;;;-2.40;99.90;;;;;;4175527;28;19944;-46
2022/01/23 08:45:56;;;;;;;;;;;-2.40;99.90;;;;;;4176985;28;20012;-46
2022/01/23 08:47:58;;;;;;;;;;;-2.40;99.90;;;;;;4175277;28;19932;-47
2022/01/23 08:50:00;;;;;;;;;;;-2.50;99.90;;;;;;4166524;28;19953;-48
2022/01/23 08:52:02;;;;;;;;;;;-2.60;99.90;;;;;;4176610;28;20019;-45
2022/01/23 08:54:05;;;;;;;;;;;-2.50;99.90;;;;;;4174344;28;19960;-50
2022/01/23 08:56:07;;;;;;;;;;;-2.50;99.90;;;;;;4175678;28;19924;-47
2022/01/23 08:58:09;;;;;;;;;;;-2.50;99.90;;;;;;4177154;28;20011;-46
2022/01/23 09:00:11;;;;;;;;;;;-2.50;99.90;;;;;;4175585;28;19932;-48
2022/01/23 09:02:13;;;;;;;;;;;-2.30;99.90;;;;;;4172296;28;19928;-48
2022/01/23 09:04:16;;;;;;;;;;;-2.20;99.90;;;;;;4173687;28;20034;-49
2022/01/23 09:06:18;;;;;;;;;;;-2.20;99.90;;;;;;4175730;28;20007;-50
2022/01/23 09:08:21;;;;;;;;;;;-2.10;99.90;;;;;;4172232;28;19929;-45
2022/01/23 09:10:28;;;;;;;;;;;-2.10;99.90;;;;;;4176538;28;20028;-51
2022/01/23 09:12:44;;;;;;;;;;;-2.00;99.90;;;;;;4175365;28;20399;-47
2022/01/23 09:14:48;;;;;;;;;;;-1.90;99.90;;;;;;4181510;28;20346;-49
2022/01/23 09:16:51;;;;;;;;;;;-1.80;99.90;;;;;;4176478;28;19928;-49
2022/01/23 09:18:53;;;;;;;;;;;-1.80;99.90;;;;;;4178953;28;19925;-47
2022/01/23 09:20:55;;;;;;;;;;;-1.70;99.90;;;;;;4175953;28;19967;-47
2022/01/23 09:22:57;;;;;;;;;;;-1.60;99.90;;;;;;4176924;28;19924;-49
2022/01/23 09:25:00;;;;;;;;;;;-1.50;99.90;;;;;;4176052;28;20392;-48
2022/01/23 09:27:05;;;;;;;;;;;-1.40;99.90;;;;;;4167425;28;19967;-48
2022/01/23 09:29:13;;;;;;;;;;;-1.30;99.90;;;;;;4173693;28;19932;-47
2022/01/23 09:31:26;;;;;;;;;;;-1.30;99.90;;;;;;4170571;28;20027;-49
2022/01/23 09:33:28;;;;;;;;;;;-1.20;99.90;;;;;;4175351;28;19933;-47
2022/01/23 09:35:30;;;;;;;;;;;-1.10;99.90;;;;;;4176478;28;20596;-49
2022/01/23 09:37:32;;;;;;;;;;;-0.90;99.90;;;;;;4173843;28;19925;-46
2022/01/23 09:39:35;;;;;;;;;;;-0.80;99.90;;;;;;4165248;28;20532;-47
2022/01/23 09:41:38;;;;;;;;;;;-0.70;99.90;;;;;;4172036;28;19925;-48
2022/01/23 09:43:42;;;;;;;;;;;-0.60;99.90;;;;;;4177296;28;19951;-50
2022/01/23 09:45:51;;;;;;;;;;;-0.50;99.90;;;;;;4173293;28;19928;-48
2022/01/23 09:47:55;;;;;;;;;;;-0.40;99.90;;;;;;4176870;28;19933;-47
2022/01/23 09:50:00;;;;;;;;;;;-0.40;99.90;;;;;;4174598;28;19932;-48
2022/01/23 09:52:03;;;;;;;;;;;-0.30;99.90;;;;;;4160192;28;19947;-50
2022/01/23 09:54:05;;;;;;;;;;;-0.20;99.90;;;;;;4173502;28;19956;-50
2022/01/23 09:56:09;;;;;;;;;;;-0.10;99.90;;;;;;4177175;28;19990;-50
2022/01/23 09:58:11;;;;;;;;;;;-0.10;99.90;;;;;;4174455;28;20369;-49
2022/01/23 10:00:15;;;;;;;;;;;-0.10;99.90;;;;;;4175646;28;19937;-49
2022/01/23 10:02:17;;;;;;;;;;;0.10;99.90;;;;;;4173238;28;19972;-48
2022/01/23 10:04:19;;;;;;;;;;;0.20;99.90;;;;;;4176723;28;20011;-47
2022/01/23 10:06:21;;;;;;;;;;;0.30;99.90;;;;;;4172289;28;19972;-50
2022/01/23 10:08:24;;;;;;;;;;;0.40;99.90;;;;;;4176864;28;19932;-49
2022/01/23 10:10:29;;;;;;;;;;;0.60;99.90;;;;;;4173171;28;20019;-47
2022/01/23 10:12:31;;;;;;;;;;;0.70;99.90;;;;;;4176371;28;19986;-48
2022/01/23 10:14:34;;;;;;;;;;;0.80;99.90;;;;;;4174484;28;20506;-47
2022/01/23 10:16:36;;;;;;;;;;;1.00;99.90;;;;;;4174015;28;19967;-50
2022/01/23 10:18:38;;;;;;;;;;;1.20;99.90;;;;;;4173012;28;19932;-48
2022/01/23 10:20:41;;;;;;;;;;;1.40;99.90;;;;;;4179062;28;19968;-48
2022/01/23 10:22:46;;;;;;;;;;;1.70;99.90;;;;;;4178224;28;19925;-49
2022/01/23 10:24:48;;;;;;;;;;;2.00;99.90;;;;;;4160295;28;20012;-47
2022/01/23 10:26:54;;;;;;;;;;;2.60;99.90;;;;;;4177810;28;19928;-48
2022/01/23 10:29:10;;;;;;;;;;;2.90;99.90;;;;;;4175586;28;20380;-48
2022/01/23 10:31:12;;;;;;;;;;;3.30;99.90;;;;;;4141684;28;19926;-47
2022/01/23 10:33:20;;;;;;;;;;;3.40;99.90;;;;;;4144894;28;19972;-48
2022/01/23 10:35:22;;;;;;;;;;;3.50;99.90;;;;;;4144519;28;20420;-49
2022/01/23 10:37:26;;;;;;;;;;;3.90;99.90;;;;;;4144004;28;19931;-49
2022/01/23 10:39:47;;;;;;;;;;;3.70;99.90;;;;;;4140156;28;19929;-48
2022/01/23 10:42:01;;;;;;;;;;;3.60;99.90;;;;;;4144112;28;20475;-48
2022/01/23 10:46:52;;;;;;;;;;;3.90;99.90;;;;;;4146241;28;19980;-49
2022/01/23 10:48:54;;;;;;;;;;;3.80;99.90;;;;;;4141827;28;19929;-48
2022/01/23 10:51:17;;;;;;;;;;;3.50;99.90;;;;;;4147160;28;20263;-48
2022/01/23 10:53:19;;;;;;;;;;;3.50;99.90;;;;;;4128328;28;20040;-48
2022/01/23 10:55:21;;;;;;;;;;;3.50;99.90;;;;;;4142988;28;20036;-47
2022/01/23 10:57:23;;;;;;;;;;;3.60;99.90;;;;;;4157741;28;19975;-48
2022/01/23 10:59:25;;;;;;;;;;;3.70;99.90;;;;;;4144294;28;19929;-46
2022/01/23 11:01:28;;;;;;;;;;;3.80;99.90;;;;;;4143586;28;19934;-50
2022/01/23 11:03:30;;;;;;;;;;;3.70;99.90;;;;;;4143409;28;19934;-49
2022/01/23 11:05:33;;;;;;;;;;;3.70;99.90;;;;;;4146014;28;20425;-48
2022/01/23 11:07:39;;;;;;;;;;;4.30;99.90;;;;;;4145169;28;20028;-48
2022/01/23 11:09:41;;;;;;;;;;;4.50;99.90;;;;;;4142074;28;19929;-49
2022/01/23 11:11:49;;;;;;;;;;;4.50;99.90;;;;;;4146280;28;19926;-50
2022/01/23 11:18:56;;;;;;;;;;;4.70;99.90;;;;;;4145978;28;19973;-48
2022/01/23 11:20:58;;;;;;;;;;;5.10;99.90;;;;;;4145722;28;19929;-49
2022/01/23 11:23:11;;;;;;;;;;;5.40;99.90;;;;;;4142398;28;19930;-49
2022/01/23 11:25:14;;;;;;;;;;;5.60;99.90;;;;;;4139105;28;20189;-47
2022/01/23 11:27:17;;;;;;;;;;;5.80;99.90;;;;;;4143001;28;19979;-50
2022/01/23 11:29:19;;;;;;;;;;;6.00;99.90;;;;;;4140912;28;19936;-49
2022/01/23 11:31:23;;;;;;;;;;;6.10;99.90;;;;;;4159782;28;20024;-48
2022/01/23 11:33:25;;;;;;;;;;;6.50;99.90;;;;;;4160262;28;19925;-50
2022/01/23 11:35:28;;;;;;;;;;;6.20;99.90;;;;;;4158506;28;19925;-49
2022/01/23 11:37:30;;;;;;;;;;;6.40;99.90;;;;;;4162939;28;19961;-51
2022/01/23 11:39:43;;;;;;;;;;;6.60;99.90;;;;;;4163373;28;20393;-48
2022/01/23 11:55:47;;;;;;;;;;;7.60;99.90;;;;;;4160944;28;19925;-50
2022/01/23 11:57:49;;;;;;;;;;;8.10;99.90;;;;;;4160962;28;20300;-49
2022/01/23 11:59:50;;;;;;;;;;;8.00;99.90;;;;;;4160125;28;19940;-51
2022/01/23 12:04:43;;;;;;;;;;;8.10;99.40;;;;;;4126916;28;19930;-49
2022/01/23 12:07:05;;;;;;;;;;;8.30;99.00;;;;;;4127440;28;19980;-50
2022/01/23 12:09:10;;;;;;;;;;;8.10;98.90;;;;;;4126652;28;19930;-47
2022/01/23 12:13:55;;;;;;;;;;;8.30;99.40;;;;;;4125118;28;19930;-50
2022/01/23 12:18:28;;;;;;;;;;;8.40;98.10;;;;;;4125526;28;19930;-48
2022/01/23 12:20:34;;;;;;;;;;;8.30;99.00;;;;;;4126203;28;19934;-50
2022/01/23 12:22:42;;;;;;;;;;;8.20;98.30;;;;;;4127458;28;19957;-47
2022/01/23 12:24:49;;;;;;;;;;;7.90;97.90;;;;;;4120663;28;20389;-50
2022/01/23 12:26:55;;;;;;;;;;;8.20;98.30;;;;;;4127345;28;19980;-50
2022/01/23 12:29:09;;;;;;;;;;;8.00;97.70;;;;;;4125974;28;19984;-48
2022/01/23 12:31:31;;;;;;;;;;;8.40;98.40;;;;;;4138460;28;20028;-49
2022/01/23 12:33:39;;;;;;;;;;;8.40;97.60;;;;;;4126220;28;19938;-50
2022/01/23 12:35:43;;;;;;;;;;;8.40;97.30;;;;;;4126369;28;19957;-48
2022/01/23 12:38:00;;;;;;;;;;;8.60;98.00;;;;;;4126712;28;20604;-50
2022/01/23 12:40:20;;;;;;;;;;;8.50;96.50;;;;;;4126335;28;19929;-48
2022/01/23 12:42:22;;;;;;;;;;;8.40;97.10;;;;;;4173465;28;19928;-48
2022/01/23 12:44:25;;;;;;;;;;;8.50;98.20;;;;;;4159477;28;19925;-48
2022/01/23 12:46:33;;;;;;;;;;;8.60;96.80;;;;;;4158766;28;19930;-48
2022/01/23 12:48:36;;;;;;;;;;;8.60;96.70;;;;;;4146264;28;20023;-49
2022/01/23 12:50:44;;;;;;;;;;;8.70;96.00;;;;;;4156330;28;19929;-48
2022/01/23 12:52:50;;;;;;;;;;;8.70;96.50;;;;;;4161851;28;19929;-48
2022/01/23 12:54:52;;;;;;;;;;;8.90;95.70;;;;;;4156490;28;19960;-47
2022/01/23 12:56:55;;;;;;;;;;;9.10;95.90;;;;;;4161868;28;20340;-47
2022/01/23 12:59:07;;;;;;;;;;;8.80;95.10;;;;;;4157878;28;19960;-50
2022/01/23 13:01:17;;;;;;;;;;;8.90;96.20;;;;;;4160894;28;19929;-47
2022/01/23 13:03:23;;;;;;;;;;;9.10;95.50;;;;;;4157211;28;20029;-48
2022/01/23 13:05:30;;;;;;;;;;;9.20;95.10;;;;;;4159829;28;20020;-50
2022/01/23 13:07:42;;;;;;;;;;;9.30;96.00;;;;;;4157939;28;19937;-48
2022/01/23 13:09:52;;;;;;;;;;;9.20;94.90;;;;;;4146832;28;20001;-48
2022/01/23 13:12:02;;;;;;;;;;;9.10;94.90;;;;;;4161522;28;19929;-49
2022/01/23 13:14:04;;;;;;;;;;;9.20;95.00;;;;;;4159429;28;19965;-46
2022/01/23 13:30:13;;;;;;;;;;;9.00;94.20;;;;;;4165557;28;20047;-50
2022/01/23 13:32:25;;;;;;;;;;;9.00;95.00;;;;;;4174285;28;19976;-50
2022/01/23 13:34:32;;;;;;;;;;;9.20;95.10;;;;;;4170121;28;19929;-48
2022/01/23 13:36:34;;;;;;;;;;;9.00;94.60;;;;;;4175221;28;20574;-49
2022/01/23 13:38:38;;;;;;;;;;;9.10;95.70;;;;;;4177415;28;20011;-49
2022/01/23 13:40:42;;;;;;;;;;;9.10;94.40;;;;;;4175160;28;19979;-47
2022/01/23 13:52:02;;;;;;;;;;;9.10;95.00;;;;;;4175532;28;19990;-49
2022/01/23 13:58:39;;;;;;;;;;;9.30;94.90;;;;;;4174243;28;19925;-48
2022/01/23 14:00:42;;;;;;;;;;;9.40;93.80;;;;;;4174142;28;19928;-47
2022/01/23 14:02:44;;;;;;;;;;;9.10;94.00;;;;;;4176135;28;19983;-50
2022/01/23 14:04:51;;;;;;;;;;;9.10;94.10;;;;;;4174812;28;20019;-49
2022/01/23 14:06:53;;;;;;;;;;;9.20;94.00;;;;;;4174193;28;19928;-50
2022/01/23 14:08:59;;;;;;;;;;;9.20;94.50;;;;;;4176060;28;19979;-49
2022/01/23 14:11:01;;;;;;;;;;;9.10;94.40;;;;;;4175106;28;20403;-47
2022/01/23 14:13:05;;;;;;;;;;;9.00;93.90;;;;;;4176178;28;19935;-50
2022/01/23 14:15:33;;;;;;;;;;;9.00;94.50;;;;;;4174191;28;19950;-48
2022/01/23 14:17:39;;;;;;;;;;;9.10;94.50;;;;;;4171793;28;19933;-49
2022/01/23 14:19:55;;;;;;;;;;;9.00;94.30;;;;;;4174063;28;20012;-48
2022/01/23 14:21:59;;;;;;;;;;;8.90;94.50;;;;;;4171205;28;19924;-50
2022/01/23 14:24:01;;;;;;;;;;;9.00;94.60;;;;;;4175350;28;19924;-48
2022/01/23 14:26:08;;;;;;;;;;;9.00;95.20;;;;;;4175458;28;20048;-48
2022/01/23 14:28:14;;;;;;;;;;;9.10;94.80;;;;;;4169409;28;19925;-48
2022/01/23 14:30:20;;;;;;;;;;;9.10;94.90;;;;;;4170489;28;20015;-48
2022/01/23 14:32:30;;;;;;;;;;;9.30;95.10;;;;;;4176306;28;20028;-49
2022/01/23 14:34:32;;;;;;;;;;;9.20;94.50;;;;;;4170802;28;20004;-50
2022/01/23 14:36:38;;;;;;;;;;;9.20;94.20;;;;;;4175285;28;19928;-49
2022/01/23 14:38:52;;;;;;;;;;;9.20;94.00;;;;;;4174768;28;20016;-49
2022/01/23 14:40:56;;;;;;;;;;;9.10;94.60;;;;;;4175625;28;19976;-48
2022/01/23 14:43:06;;;;;;;;;;;9.10;95.10;;;;;;4173885;28;19972;-48
2022/01/23 14:45:09;;;;;;;;;;;9.20;94.70;;;;;;4176811;28;19925;-48
2022/01/23 14:47:11;;;;;;;;;;;9.10;95.10;;;;;;4173567;28;19931;-50
2022/01/23 14:49:21;;;;;;;;;;;9.10;95.70;;;;;;4175640;28;19936;-49
2022/01/23 14:51:25;;;;;;;;;;;9.00;95.80;;;;;;4174279;28;20251;-49
2022/01/23 14:53:27;;;;;;;;;;;9.00;96.30;;;;;;4176461;28;19971;-51
2022/01/23 14:55:29;;;;;;;;;;;9.00;96.10;;;;;;4173191;28;19928;-50
2022/01/23 14:57:35;;;;;;;;;;;8.90;96.00;;;;;;4176192;28;19925;-48
2022/01/23 14:59:37;;;;;;;;;;;8.80;96.40;;;;;;4174784;28;20345;-48
2022/01/23 15:01:39;;;;;;;;;;;8.60;96.60;;;;;;4175491;28;19929;-47
2022/01/23 15:03:43;;;;;;;;;;;8.50;96.80;;;;;;4174775;28;20339;-49
2022/01/23 15:06:02;;;;;;;;;;;8.50;97.10;;;;;;4176273;28;19925;-48
2022/01/23 15:08:07;;;;;;;;;;;8.40;97.30;;;;;;4177928;28;20392;-48
2022/01/23 15:10:10;;;;;;;;;;;8.30;97.70;;;;;;4178307;28;19980;-47
2022/01/23 15:12:13;;;;;;;;;;;8.20;97.70;;;;;;4176989;28;20461;-50
2022/01/23 15:14:15;;;;;;;;;;;8.10;98.00;;;;;;4178916;28;20022;-48
2022/01/23 15:16:17;;;;;;;;;;;8.10;98.00;;;;;;4155790;28;19936;-51
2022/01/23 15:18:19;;;;;;;;;;;8.10;98.40;;;;;;4176667;28;19933;-47
2022/01/23 15:20:21;;;;;;;;;;;8.10;98.60;;;;;;4175519;28;19924;-48
2022/01/23 15:22:23;;;;;;;;;;;8.00;98.30;;;;;;4174733;28;20016;-48
2022/01/23 15:24:25;;;;;;;;;;;8.00;98.80;;;;;;4172751;28;19928;-49
2022/01/23 15:26:28;;;;;;;;;;;7.90;98.70;;;;;;4176859;28;19960;-48
2022/01/23 15:28:30;;;;;;;;;;;7.90;98.80;;;;;;4174267;28;20012;-49